sensor_id;sensor_type;location;lat;lon;timestamp;P1;durP1;ratioP1;P2;durP2;ratioP2
39536;SDS011;26933;46.730;6.526;2022-11-03T00:03:00;0.30;;;0.30;;
39536;SDS011;26933;46.730;6.526;2022-11-03T00:06:02;0.30;;;0.30;;
39536;SDS011;26933;46.730;6.526;2022-11-03T00:09:07;0.70;;;0.50;;
39536;SDS011;26933;46.730;6.526;2022-11-03T00:12:08;0.30;;;0.30;;
39536;SDS011;26933;46.730;6.526;2022-11-03T00:15:09;0.30;;;0.25;;
39536;SDS011;26933;46.730;6.526;2022-11-03T00:18:10;0.50;;;0.47;;
39536;SDS011;26933;46.730;6.526;2022-11-03T00:21:12;1.52;;;0.73;;
39536;SDS011;26933;46.730;6.526;2022-11-03T00:24:13;1.10;;;0.20;;
39536;SDS011;26933;46.730;6.526;2022-11-03T00:27:14;0.40;;;0.40;;
39536;SDS011;26933;46.730;6.526;2022-11-03T00:30:16;0.20;;;0.20;;
39536;SDS011;26933;46.730;6.526;2022-11-03T00:33:17;0.20;;;0.20;;
39536;SDS011;26933;46.730;6.526;2022-11-03T00:36:19;0.30;;;0.30;;
39536;SDS011;26933;46.730;6.526;2022-11-03T00:39:21;1.73;;;0.70;;
39536;SDS011;26933;46.730;6.526;2022-11-03T00:42:22;0.30;;;0.30;;
39536;SDS011;26933;46.730;6.526;2022-11-03T00:45:23;0.20;;;0.20;;
39536;SDS011;26933;46.730;6.526;2022-11-03T00:48:24;1.35;;;0.50;;
39536;SDS011;26933;46.730;6.526;2022-11-03T00:51:29;0.20;;;0.20;;
39536;SDS011;26933;46.730;6.526;2022-11-03T00:54:30;0.20;;;0.20;;
39536;SDS011;26933;46.730;6.526;2022-11-03T00:57:31;0.30;;;0.30;;
39536;SDS011;26933;46.730;6.526;2022-11-03T01:00:32;0.43;;;0.40;;
39536;SDS011;26933;46.730;6.526;2022-11-03T01:03:35;0.90;;;0.57;;
39536;SDS011;26933;46.730;6.526;2022-11-03T01:06:37;0.10;;;0.10;;
39536;SDS011;26933;46.730;6.526;2022-11-03T01:09:51;0.20;;;0.20;;
39536;SDS011;26933;46.730;6.526;2022-11-03T01:12:52;0.30;;;0.30;;
39536;SDS011;26933;46.730;6.526;2022-11-03T01:15:57;0.20;;;0.20;;
39536;SDS011;26933;46.730;6.526;2022-11-03T01:18:58;1.08;;;0.40;;
39536;SDS011;26933;46.730;6.526;2022-11-03T01:21:59;0.20;;;0.20;;
39536;SDS011;26933;46.730;6.526;2022-11-03T01:25:00;0.95;;;0.40;;
39536;SDS011;26933;46.730;6.526;2022-11-03T01:28:02;0.20;;;0.20;;
39536;SDS011;26933;46.730;6.526;2022-11-03T01:31:10;0.47;;;0.40;;
39536;SDS011;26933;46.730;6.526;2022-11-03T01:34:13;0.25;;;0.25;;
39536;SDS011;26933;46.730;6.526;2022-11-03T01:37:14;0.47;;;0.30;;
39536;SDS011;26933;46.730;6.526;2022-11-03T01:40:16;2.50;;;0.60;;
39536;SDS011;26933;46.730;6.526;2022-11-03T01:43:18;0.20;;;0.20;;
39536;SDS011;26933;46.730;6.526;2022-11-03T01:46:23;0.35;;;0.20;;
39536;SDS011;26933;46.730;6.526;2022-11-03T01:49:30;7.80;;;0.75;;
39536;SDS011;26933;46.730;6.526;2022-11-03T01:52:35;0.55;;;0.40;;
39536;SDS011;26933;46.730;6.526;2022-11-03T01:55:37;0.75;;;0.30;;
39536;SDS011;26933;46.730;6.526;2022-11-03T01:58:41;0.55;;;0.55;;
39536;SDS011;26933;46.730;6.526;2022-11-03T02:01:44;0.30;;;0.30;;
39536;SDS011;26933;46.730;6.526;2022-11-03T02:04:45;1.00;;;0.73;;
39536;SDS011;26933;46.730;6.526;2022-11-03T02:08:30;0.35;;;0.35;;
39536;SDS011;26933;46.730;6.526;2022-11-03T02:11:12;0.32;;;0.28;;
39536;SDS011;26933;46.730;6.526;2022-11-03T02:14:34;0.10;;;0.10;;
39536;SDS011;26933;46.730;6.526;2022-11-03T02:17:36;0.30;;;0.30;;
39536;SDS011;26933;46.730;6.526;2022-11-03T02:20:37;0.40;;;0.30;;
39536;SDS011;26933;46.730;6.526;2022-11-03T02:26:42;0.25;;;0.20;;
39536;SDS011;26933;46.730;6.526;2022-11-03T02:29:43;1.83;;;0.52;;
39536;SDS011;26933;46.730;6.526;2022-11-03T02:36:01;0.35;;;0.30;;
39536;SDS011;26933;46.730;6.526;2022-11-03T02:39:11;0.20;;;0.20;;
39536;SDS011;26933;46.730;6.526;2022-11-03T02:42:13;0.75;;;0.68;;
39536;SDS011;26933;46.730;6.526;2022-11-03T02:45:16;0.20;;;0.20;;
39536;SDS011;26933;46.730;6.526;2022-11-03T02:48:18;0.20;;;0.20;;
39536;SDS011;26933;46.730;6.526;2022-11-03T02:51:19;1.00;;;0.40;;
39536;SDS011;26933;46.730;6.526;2022-11-03T02:54:22;0.20;;;0.20;;
39536;SDS011;26933;46.730;6.526;2022-11-03T02:57:26;1.10;;;0.65;;
39536;SDS011;26933;46.730;6.526;2022-11-03T03:00:29;0.30;;;0.28;;
39536;SDS011;26933;46.730;6.526;2022-11-03T03:04:07;0.15;;;0.15;;
39536;SDS011;26933;46.730;6.526;2022-11-03T03:07:02;1.50;;;0.57;;
39536;SDS011;26933;46.730;6.526;2022-11-03T03:10:05;0.40;;;0.40;;
39536;SDS011;26933;46.730;6.526;2022-11-03T03:13:08;0.20;;;0.20;;
39536;SDS011;26933;46.730;6.526;2022-11-03T03:16:19;0.20;;;0.20;;
39536;SDS011;26933;46.730;6.526;2022-11-03T03:19:27;0.38;;;0.25;;
39536;SDS011;26933;46.730;6.526;2022-11-03T03:22:46;0.47;;;0.32;;
39536;SDS011;26933;46.730;6.526;2022-11-03T03:28:57;0.20;;;0.20;;
39536;SDS011;26933;46.730;6.526;2022-11-03T03:32:00;0.20;;;0.20;;
39536;SDS011;26933;46.730;6.526;2022-11-03T03:35:04;0.30;;;0.20;;
39536;SDS011;26933;46.730;6.526;2022-11-03T03:38:08;0.10;;;0.10;;
39536;SDS011;26933;46.730;6.526;2022-11-03T03:41:11;0.65;;;0.47;;
39536;SDS011;26933;46.730;6.526;2022-11-03T03:44:21;0.20;;;0.20;;
39536;SDS011;26933;46.730;6.526;2022-11-03T03:47:31;0.68;;;0.35;;
39536;SDS011;26933;46.730;6.526;2022-11-03T03:50:34;0.38;;;0.25;;
39536;SDS011;26933;46.730;6.526;2022-11-03T03:53:37;0.60;;;0.30;;
39536;SDS011;26933;46.730;6.526;2022-11-03T03:56:49;0.30;;;0.30;;
39536;SDS011;26933;46.730;6.526;2022-11-03T03:59:51;0.20;;;0.20;;
39536;SDS011;26933;46.730;6.526;2022-11-03T04:02:55;0.20;;;0.20;;
39536;SDS011;26933;46.730;6.526;2022-11-03T04:05:56;0.20;;;0.20;;
39536;SDS011;26933;46.730;6.526;2022-11-03T04:08:57;0.30;;;0.30;;
39536;SDS011;26933;46.730;6.526;2022-11-03T04:11:58;0.20;;;0.20;;
39536;SDS011;26933;46.730;6.526;2022-11-03T04:15:19;0.20;;;0.20;;
39536;SDS011;26933;46.730;6.526;2022-11-03T04:18:38;0.80;;;0.75;;
39536;SDS011;26933;46.730;6.526;2022-11-03T04:21:58;0.57;;;0.30;;
39536;SDS011;26933;46.730;6.526;2022-11-03T04:28:16;0.20;;;0.20;;
39536;SDS011;26933;46.730;6.526;2022-11-03T04:31:18;0.20;;;0.20;;
39536;SDS011;26933;46.730;6.526;2022-11-03T04:34:19;0.55;;;0.50;;
39536;SDS011;26933;46.730;6.526;2022-11-03T04:37:24;0.20;;;0.20;;
39536;SDS011;26933;46.730;6.526;2022-11-03T04:40:26;0.20;;;0.20;;
39536;SDS011;26933;46.730;6.526;2022-11-03T04:43:34;0.20;;;0.20;;
39536;SDS011;26933;46.730;6.526;2022-11-03T04:46:36;0.40;;;0.30;;
39536;SDS011;26933;46.730;6.526;2022-11-03T04:49:38;0.13;;;0.13;;
39536;SDS011;26933;46.730;6.526;2022-11-03T04:52:39;0.30;;;0.30;;
39536;SDS011;26933;46.730;6.526;2022-11-03T04:55:40;0.20;;;0.20;;
39536;SDS011;26933;46.730;6.526;2022-11-03T04:58:42;0.82;;;0.60;;
39536;SDS011;26933;46.730;6.526;2022-11-03T05:01:44;0.20;;;0.20;;
39536;SDS011;26933;46.730;6.526;2022-11-03T05:04:45;0.20;;;0.20;;
39536;SDS011;26933;46.730;6.526;2022-11-03T05:07:47;0.22;;;0.22;;
39536;SDS011;26933;46.730;6.526;2022-11-03T05:10:49;0.15;;;0.15;;
39536;SDS011;26933;46.730;6.526;2022-11-03T05:13:50;0.30;;;0.30;;
39536;SDS011;26933;46.730;6.526;2022-11-03T05:16:52;0.20;;;0.20;;
39536;SDS011;26933;46.730;6.526;2022-11-03T05:19:55;0.30;;;0.30;;
39536;SDS011;26933;46.730;6.526;2022-11-03T05:22:57;1.55;;;0.82;;
39536;SDS011;26933;46.730;6.526;2022-11-03T05:25:58;1.65;;;0.57;;
39536;SDS011;26933;46.730;6.526;2022-11-03T05:29:08;0.20;;;0.20;;
39536;SDS011;26933;46.730;6.526;2022-11-03T05:32:11;0.30;;;0.20;;
39536;SDS011;26933;46.730;6.526;2022-11-03T05:35:20;0.40;;;0.30;;
39536;SDS011;26933;46.730;6.526;2022-11-03T05:38:22;0.90;;;0.45;;
39536;SDS011;26933;46.730;6.526;2022-11-03T05:41:25;1.45;;;0.75;;
39536;SDS011;26933;46.730;6.526;2022-11-03T05:47:35;0.25;;;0.25;;
39536;SDS011;26933;46.730;6.526;2022-11-03T05:50:37;0.20;;;0.20;;
39536;SDS011;26933;46.730;6.526;2022-11-03T05:53:40;0.98;;;0.52;;
39536;SDS011;26933;46.730;6.526;2022-11-03T05:56:45;0.50;;;0.50;;
39536;SDS011;26933;46.730;6.526;2022-11-03T05:59:48;1.15;;;0.98;;
39536;SDS011;26933;46.730;6.526;2022-11-03T06:02:49;0.20;;;0.20;;
39536;SDS011;26933;46.730;6.526;2022-11-03T06:05:51;0.30;;;0.30;;
39536;SDS011;26933;46.730;6.526;2022-11-03T06:08:54;0.40;;;0.20;;
39536;SDS011;26933;46.730;6.526;2022-11-03T06:11:57;0.20;;;0.20;;
39536;SDS011;26933;46.730;6.526;2022-11-03T06:15:00;0.40;;;0.40;;
39536;SDS011;26933;46.730;6.526;2022-11-03T06:18:19;0.30;;;0.30;;
39536;SDS011;26933;46.730;6.526;2022-11-03T06:21:22;0.20;;;0.20;;
39536;SDS011;26933;46.730;6.526;2022-11-03T06:24:25;0.98;;;0.52;;
39536;SDS011;26933;46.730;6.526;2022-11-03T06:27:29;0.30;;;0.30;;
39536;SDS011;26933;46.730;6.526;2022-11-03T06:30:35;0.40;;;0.30;;
39536;SDS011;26933;46.730;6.526;2022-11-03T06:33:39;0.95;;;0.40;;
39536;SDS011;26933;46.730;6.526;2022-11-03T06:36:40;2.72;;;0.63;;
39536;SDS011;26933;46.730;6.526;2022-11-03T06:39:41;0.63;;;0.60;;
39536;SDS011;26933;46.730;6.526;2022-11-03T06:42:42;0.82;;;0.57;;
39536;SDS011;26933;46.730;6.526;2022-11-03T06:45:50;0.25;;;0.25;;
39536;SDS011;26933;46.730;6.526;2022-11-03T06:48:57;0.65;;;0.65;;
39536;SDS011;26933;46.730;6.526;2022-11-03T06:52:05;2.55;;;0.40;;
39536;SDS011;26933;46.730;6.526;2022-11-03T06:58:22;0.13;;;0.13;;
39536;SDS011;26933;46.730;6.526;2022-11-03T07:01:25;0.20;;;0.20;;
39536;SDS011;26933;46.730;6.526;2022-11-03T07:04:26;0.20;;;0.20;;
39536;SDS011;26933;46.730;6.526;2022-11-03T07:07:27;0.40;;;0.40;;
39536;SDS011;26933;46.730;6.526;2022-11-03T07:10:30;0.32;;;0.20;;
39536;SDS011;26933;46.730;6.526;2022-11-03T07:13:32;0.63;;;0.50;;
39536;SDS011;26933;46.730;6.526;2022-11-03T07:16:36;3.65;;;1.42;;
39536;SDS011;26933;46.730;6.526;2022-11-03T07:19:38;0.20;;;0.20;;
39536;SDS011;26933;46.730;6.526;2022-11-03T07:22:41;1.48;;;0.90;;
39536;SDS011;26933;46.730;6.526;2022-11-03T07:25:43;0.55;;;0.50;;
39536;SDS011;26933;46.730;6.526;2022-11-03T07:28:45;0.80;;;0.60;;
39536;SDS011;26933;46.730;6.526;2022-11-03T07:31:48;0.50;;;0.47;;
39536;SDS011;26933;46.730;6.526;2022-11-03T07:34:51;0.45;;;0.40;;
39536;SDS011;26933;46.730;6.526;2022-11-03T07:37:52;0.43;;;0.30;;
39536;SDS011;26933;46.730;6.526;2022-11-03T07:40:55;0.50;;;0.40;;
39536;SDS011;26933;46.730;6.526;2022-11-03T07:43:57;0.52;;;0.50;;
39536;SDS011;26933;46.730;6.526;2022-11-03T07:46:59;0.55;;;0.45;;
39536;SDS011;26933;46.730;6.526;2022-11-03T07:50:00;0.30;;;0.30;;
39536;SDS011;26933;46.730;6.526;2022-11-03T07:53:01;1.40;;;0.70;;
39536;SDS011;26933;46.730;6.526;2022-11-03T07:56:12;0.98;;;0.52;;
39536;SDS011;26933;46.730;6.526;2022-11-03T08:05:37;0.70;;;0.40;;
39536;SDS011;26933;46.730;6.526;2022-11-03T08:08:38;0.43;;;0.43;;
39536;SDS011;26933;46.730;6.526;2022-11-03T08:11:39;1.70;;;0.80;;
39536;SDS011;26933;46.730;6.526;2022-11-03T08:14:41;0.30;;;0.30;;
39536;SDS011;26933;46.730;6.526;2022-11-03T08:17:42;0.40;;;0.40;;
39536;SDS011;26933;46.730;6.526;2022-11-03T08:20:43;0.20;;;0.20;;
39536;SDS011;26933;46.730;6.526;2022-11-03T08:23:44;5.65;;;1.05;;
39536;SDS011;26933;46.730;6.526;2022-11-03T08:26:45;0.85;;;0.65;;
39536;SDS011;26933;46.730;6.526;2022-11-03T08:29:46;0.55;;;0.40;;
39536;SDS011;26933;46.730;6.526;2022-11-03T08:32:48;1.38;;;0.73;;
39536;SDS011;26933;46.730;6.526;2022-11-03T08:35:49;0.40;;;0.40;;
39536;SDS011;26933;46.730;6.526;2022-11-03T08:38:51;1.55;;;1.05;;
39536;SDS011;26933;46.730;6.526;2022-11-03T08:41:52;0.95;;;0.73;;
39536;SDS011;26933;46.730;6.526;2022-11-03T08:44:53;0.52;;;0.50;;
39536;SDS011;26933;46.730;6.526;2022-11-03T08:47:55;1.48;;;0.73;;
39536;SDS011;26933;46.730;6.526;2022-11-03T08:50:56;1.40;;;0.70;;
39536;SDS011;26933;46.730;6.526;2022-11-03T08:53:57;0.95;;;0.68;;
39536;SDS011;26933;46.730;6.526;2022-11-03T08:56:59;1.90;;;0.93;;
39536;SDS011;26933;46.730;6.526;2022-11-03T09:00:00;11.57;;;1.33;;
39536;SDS011;26933;46.730;6.526;2022-11-03T09:03:01;0.77;;;0.52;;
39536;SDS011;26933;46.730;6.526;2022-11-03T09:06:02;0.98;;;0.82;;
39536;SDS011;26933;46.730;6.526;2022-11-03T09:09:03;0.88;;;0.63;;
39536;SDS011;26933;46.730;6.526;2022-11-03T09:12:05;2.90;;;1.65;;
39536;SDS011;26933;46.730;6.526;2022-11-03T09:15:06;4.00;;;1.48;;
39536;SDS011;26933;46.730;6.526;2022-11-03T09:18:07;3.55;;;1.92;;
39536;SDS011;26933;46.730;6.526;2022-11-03T09:21:08;1.95;;;1.05;;
39536;SDS011;26933;46.730;6.526;2022-11-03T09:24:10;0.90;;;0.60;;
39536;SDS011;26933;46.730;6.526;2022-11-03T09:27:11;1.13;;;0.93;;
39536;SDS011;26933;46.730;6.526;2022-11-03T09:30:12;1.38;;;0.98;;
39536;SDS011;26933;46.730;6.526;2022-11-03T09:33:13;1.15;;;0.63;;
39536;SDS011;26933;46.730;6.526;2022-11-03T09:36:14;3.05;;;1.33;;
39536;SDS011;26933;46.730;6.526;2022-11-03T09:39:16;3.08;;;1.75;;
39536;SDS011;26933;46.730;6.526;2022-11-03T09:42:17;3.30;;;1.27;;
39536;SDS011;26933;46.730;6.526;2022-11-03T09:45:18;2.60;;;1.73;;
39536;SDS011;26933;46.730;6.526;2022-11-03T09:48:19;3.47;;;1.67;;
39536;SDS011;26933;46.730;6.526;2022-11-03T09:51:21;2.03;;;1.23;;
39536;SDS011;26933;46.730;6.526;2022-11-03T09:54:23;2.85;;;1.42;;
39536;SDS011;26933;46.730;6.526;2022-11-03T09:57:27;7.57;;;1.75;;
39536;SDS011;26933;46.730;6.526;2022-11-03T10:00:28;2.80;;;1.65;;
39536;SDS011;26933;46.730;6.526;2022-11-03T10:03:29;1.30;;;0.82;;
39536;SDS011;26933;46.730;6.526;2022-11-03T10:06:31;3.88;;;1.80;;
39536;SDS011;26933;46.730;6.526;2022-11-03T10:09:32;3.60;;;0.98;;
39536;SDS011;26933;46.730;6.526;2022-11-03T10:12:35;1.55;;;0.93;;
39536;SDS011;26933;46.730;6.526;2022-11-03T10:15:36;4.40;;;1.70;;
39536;SDS011;26933;46.730;6.526;2022-11-03T10:18:41;2.33;;;1.42;;
39536;SDS011;26933;46.730;6.526;2022-11-03T10:21:42;10.32;;;2.92;;
39536;SDS011;26933;46.730;6.526;2022-11-03T10:24:43;4.20;;;1.77;;
39536;SDS011;26933;46.730;6.526;2022-11-03T10:27:45;2.55;;;1.27;;
39536;SDS011;26933;46.730;6.526;2022-11-03T10:30:46;4.28;;;1.23;;
39536;SDS011;26933;46.730;6.526;2022-11-03T10:33:52;9.15;;;2.33;;
39536;SDS011;26933;46.730;6.526;2022-11-03T10:37:10;17.60;;;1.27;;
39536;SDS011;26933;46.730;6.526;2022-11-03T10:40:32;1.70;;;1.00;;
39536;SDS011;26933;46.730;6.526;2022-11-03T10:43:34;2.97;;;1.20;;
39536;SDS011;26933;46.730;6.526;2022-11-03T10:46:36;5.78;;;1.33;;
39536;SDS011;26933;46.730;6.526;2022-11-03T10:49:37;3.95;;;1.52;;
39536;SDS011;26933;46.730;6.526;2022-11-03T10:52:38;1.98;;;1.08;;
39536;SDS011;26933;46.730;6.526;2022-11-03T10:55:40;1.90;;;1.02;;
39536;SDS011;26933;46.730;6.526;2022-11-03T10:58:41;3.13;;;1.10;;
39536;SDS011;26933;46.730;6.526;2022-11-03T11:01:42;4.95;;;2.25;;
39536;SDS011;26933;46.730;6.526;2022-11-03T11:04:44;1.25;;;0.93;;
39536;SDS011;26933;46.730;6.526;2022-11-03T11:07:46;3.72;;;1.55;;
39536;SDS011;26933;46.730;6.526;2022-11-03T11:10:48;2.70;;;1.40;;
39536;SDS011;26933;46.730;6.526;2022-11-03T11:26:34;2.47;;;1.65;;
39536;SDS011;26933;46.730;6.526;2022-11-03T11:29:36;1.90;;;1.20;;
39536;SDS011;26933;46.730;6.526;2022-11-03T11:44:56;1.00;;;0.70;;
39536;SDS011;26933;46.730;6.526;2022-11-03T11:47:58;2.60;;;1.45;;
39536;SDS011;26933;46.730;6.526;2022-11-03T11:50:59;3.70;;;1.38;;
39536;SDS011;26933;46.730;6.526;2022-11-03T11:54:07;2.17;;;1.15;;
39536;SDS011;26933;46.730;6.526;2022-11-03T11:57:18;4.97;;;1.75;;
39536;SDS011;26933;46.730;6.526;2022-11-03T12:00:20;2.92;;;1.65;;
39536;SDS011;26933;46.730;6.526;2022-11-03T12:03:27;3.63;;;0.95;;
39536;SDS011;26933;46.730;6.526;2022-11-03T12:09:30;3.80;;;1.65;;
39536;SDS011;26933;46.730;6.526;2022-11-03T12:12:32;1.85;;;1.30;;
39536;SDS011;26933;46.730;6.526;2022-11-03T12:15:53;4.13;;;1.58;;
39536;SDS011;26933;46.730;6.526;2022-11-03T12:18:55;1.48;;;0.90;;
39536;SDS011;26933;46.730;6.526;2022-11-03T12:21:56;5.50;;;2.17;;
39536;SDS011;26933;46.730;6.526;2022-11-03T12:27:58;3.47;;;1.42;;
39536;SDS011;26933;46.730;6.526;2022-11-03T12:31:00;3.38;;;1.30;;
39536;SDS011;26933;46.730;6.526;2022-11-03T12:34:01;5.40;;;2.35;;
39536;SDS011;26933;46.730;6.526;2022-11-03T12:37:02;1.52;;;1.15;;
39536;SDS011;26933;46.730;6.526;2022-11-03T12:40:04;2.75;;;1.55;;
39536;SDS011;26933;46.730;6.526;2022-11-03T12:43:05;6.68;;;1.63;;
39536;SDS011;26933;46.730;6.526;2022-11-03T12:46:06;1.85;;;1.08;;
39536;SDS011;26933;46.730;6.526;2022-11-03T12:49:07;6.20;;;1.58;;
39536;SDS011;26933;46.730;6.526;2022-11-03T12:52:09;2.13;;;0.90;;
39536;SDS011;26933;46.730;6.526;2022-11-03T12:55:10;1.33;;;0.90;;
39536;SDS011;26933;46.730;6.526;2022-11-03T12:58:11;2.72;;;1.50;;
39536;SDS011;26933;46.730;6.526;2022-11-03T13:01:12;1.80;;;1.38;;
39536;SDS011;26933;46.730;6.526;2022-11-03T13:04:13;8.65;;;2.15;;
39536;SDS011;26933;46.730;6.526;2022-11-03T13:07:15;2.80;;;1.30;;
39536;SDS011;26933;46.730;6.526;2022-11-03T13:10:16;2.15;;;1.33;;
39536;SDS011;26933;46.730;6.526;2022-11-03T13:13:20;3.78;;;1.92;;
39536;SDS011;26933;46.730;6.526;2022-11-03T13:16:21;5.05;;;1.90;;
39536;SDS011;26933;46.730;6.526;2022-11-03T13:19:23;2.40;;;1.33;;
39536;SDS011;26933;46.730;6.526;2022-11-03T13:22:24;2.55;;;1.50;;
39536;SDS011;26933;46.730;6.526;2022-11-03T13:25:25;3.35;;;1.55;;
39536;SDS011;26933;46.730;6.526;2022-11-03T13:28:27;3.15;;;1.50;;
39536;SDS011;26933;46.730;6.526;2022-11-03T13:31:29;5.07;;;2.08;;
39536;SDS011;26933;46.730;6.526;2022-11-03T13:34:30;2.55;;;1.48;;
39536;SDS011;26933;46.730;6.526;2022-11-03T13:37:31;2.30;;;1.67;;
39536;SDS011;26933;46.730;6.526;2022-11-03T13:40:33;4.32;;;3.13;;
39536;SDS011;26933;46.730;6.526;2022-11-03T13:43:34;3.03;;;1.10;;
39536;SDS011;26933;46.730;6.526;2022-11-03T13:46:36;3.70;;;1.42;;
39536;SDS011;26933;46.730;6.526;2022-11-03T13:49:37;1.38;;;0.93;;
39536;SDS011;26933;46.730;6.526;2022-11-03T13:52:38;5.13;;;1.30;;
39536;SDS011;26933;46.730;6.526;2022-11-03T13:55:39;2.33;;;0.85;;
39536;SDS011;26933;46.730;6.526;2022-11-03T13:58:40;4.65;;;1.95;;
39536;SDS011;26933;46.730;6.526;2022-11-03T14:01:42;2.25;;;1.45;;
39536;SDS011;26933;46.730;6.526;2022-11-03T14:04:43;2.83;;;1.08;;
39536;SDS011;26933;46.730;6.526;2022-11-03T14:07:44;3.00;;;1.67;;
39536;SDS011;26933;46.730;6.526;2022-11-03T14:10:45;2.95;;;1.30;;
39536;SDS011;26933;46.730;6.526;2022-11-03T14:13:46;4.70;;;2.15;;
39536;SDS011;26933;46.730;6.526;2022-11-03T14:16:48;5.22;;;1.50;;
39536;SDS011;26933;46.730;6.526;2022-11-03T14:19:49;2.88;;;1.65;;
39536;SDS011;26933;46.730;6.526;2022-11-03T14:22:50;1.67;;;1.30;;
39536;SDS011;26933;46.730;6.526;2022-11-03T14:25:51;3.53;;;1.95;;
39536;SDS011;26933;46.730;6.526;2022-11-03T14:28:52;5.93;;;1.23;;
39536;SDS011;26933;46.730;6.526;2022-11-03T14:31:54;1.40;;;0.98;;
39536;SDS011;26933;46.730;6.526;2022-11-03T14:34:55;4.43;;;1.63;;
39536;SDS011;26933;46.730;6.526;2022-11-03T14:37:56;4.00;;;1.70;;
39536;SDS011;26933;46.730;6.526;2022-11-03T14:40:57;2.20;;;1.35;;
39536;SDS011;26933;46.730;6.526;2022-11-03T14:44:17;2.03;;;0.90;;
39536;SDS011;26933;46.730;6.526;2022-11-03T14:47:18;2.15;;;1.20;;
39536;SDS011;26933;46.730;6.526;2022-11-03T14:50:22;3.83;;;1.85;;
39536;SDS011;26933;46.730;6.526;2022-11-03T14:53:23;2.33;;;1.15;;
39536;SDS011;26933;46.730;6.526;2022-11-03T14:56:25;2.47;;;1.42;;
39536;SDS011;26933;46.730;6.526;2022-11-03T14:59:27;2.13;;;1.45;;
39536;SDS011;26933;46.730;6.526;2022-11-03T15:02:28;2.22;;;1.55;;
39536;SDS011;26933;46.730;6.526;2022-11-03T15:05:29;2.95;;;1.48;;
39536;SDS011;26933;46.730;6.526;2022-11-03T15:08:45;1.80;;;1.17;;
39536;SDS011;26933;46.730;6.526;2022-11-03T15:11:47;2.45;;;1.52;;
39536;SDS011;26933;46.730;6.526;2022-11-03T15:14:48;1.88;;;1.27;;
39536;SDS011;26933;46.730;6.526;2022-11-03T15:17:50;3.33;;;1.45;;
39536;SDS011;26933;46.730;6.526;2022-11-03T15:20:51;2.50;;;1.52;;
39536;SDS011;26933;46.730;6.526;2022-11-03T15:23:53;3.20;;;1.52;;
39536;SDS011;26933;46.730;6.526;2022-11-03T15:26:54;3.60;;;1.10;;
39536;SDS011;26933;46.730;6.526;2022-11-03T15:29:55;7.53;;;2.47;;
39536;SDS011;26933;46.730;6.526;2022-11-03T15:32:56;2.63;;;1.92;;
39536;SDS011;26933;46.730;6.526;2022-11-03T15:35:57;2.95;;;1.23;;
39536;SDS011;26933;46.730;6.526;2022-11-03T15:38:59;3.10;;;1.80;;
39536;SDS011;26933;46.730;6.526;2022-11-03T15:42:00;3.75;;;1.92;;
39536;SDS011;26933;46.730;6.526;2022-11-03T15:45:01;3.38;;;2.25;;
39536;SDS011;26933;46.730;6.526;2022-11-03T15:48:02;3.58;;;2.47;;
39536;SDS011;26933;46.730;6.526;2022-11-03T15:51:04;2.05;;;1.27;;
39536;SDS011;26933;46.730;6.526;2022-11-03T15:54:05;2.97;;;1.75;;
39536;SDS011;26933;46.730;6.526;2022-11-03T15:57:07;1.77;;;0.98;;
39536;SDS011;26933;46.730;6.526;2022-11-03T16:00:09;2.80;;;1.63;;
39536;SDS011;26933;46.730;6.526;2022-11-03T16:03:11;2.72;;;1.08;;
39536;SDS011;26933;46.730;6.526;2022-11-03T16:06:12;2.28;;;1.35;;
39536;SDS011;26933;46.730;6.526;2022-11-03T16:09:13;7.22;;;1.52;;
39536;SDS011;26933;46.730;6.526;2022-11-03T16:12:14;4.72;;;2.20;;
39536;SDS011;26933;46.730;6.526;2022-11-03T16:15:16;3.20;;;2.20;;
39536;SDS011;26933;46.730;6.526;2022-11-03T16:18:17;2.75;;;1.77;;
39536;SDS011;26933;46.730;6.526;2022-11-03T16:21:18;3.13;;;1.45;;
39536;SDS011;26933;46.730;6.526;2022-11-03T16:24:19;4.05;;;1.80;;
39536;SDS011;26933;46.730;6.526;2022-11-03T16:27:20;1.95;;;1.30;;
39536;SDS011;26933;46.730;6.526;2022-11-03T16:30:21;3.10;;;1.65;;
39536;SDS011;26933;46.730;6.526;2022-11-03T16:33:23;2.78;;;1.67;;
39536;SDS011;26933;46.730;6.526;2022-11-03T16:36:24;2.88;;;2.05;;
39536;SDS011;26933;46.730;6.526;2022-11-03T16:39:25;3.63;;;2.38;;
39536;SDS011;26933;46.730;6.526;2022-11-03T16:42:26;2.17;;;1.52;;
39536;SDS011;26933;46.730;6.526;2022-11-03T16:45:28;1.33;;;1.02;;
39536;SDS011;26933;46.730;6.526;2022-11-03T16:48:29;3.33;;;1.55;;
39536;SDS011;26933;46.730;6.526;2022-11-03T16:51:30;6.05;;;1.25;;
39536;SDS011;26933;46.730;6.526;2022-11-03T16:54:31;2.80;;;1.38;;
39536;SDS011;26933;46.730;6.526;2022-11-03T16:57:32;3.88;;;2.40;;
39536;SDS011;26933;46.730;6.526;2022-11-03T17:00:34;2.45;;;1.88;;
39536;SDS011;26933;46.730;6.526;2022-11-03T17:03:35;2.53;;;1.52;;
39536;SDS011;26933;46.730;6.526;2022-11-03T17:06:36;4.78;;;1.73;;
39536;SDS011;26933;46.730;6.526;2022-11-03T17:09:37;3.05;;;1.65;;
39536;SDS011;26933;46.730;6.526;2022-11-03T17:12:38;1.65;;;1.20;;
39536;SDS011;26933;46.730;6.526;2022-11-03T17:15:39;3.42;;;1.30;;
39536;SDS011;26933;46.730;6.526;2022-11-03T17:18:41;4.43;;;1.50;;
39536;SDS011;26933;46.730;6.526;2022-11-03T17:21:42;2.83;;;1.70;;
39536;SDS011;26933;46.730;6.526;2022-11-03T17:24:43;3.22;;;1.90;;
39536;SDS011;26933;46.730;6.526;2022-11-03T17:27:45;4.43;;;1.98;;
39536;SDS011;26933;46.730;6.526;2022-11-03T17:30:47;4.30;;;1.98;;
39536;SDS011;26933;46.730;6.526;2022-11-03T17:33:49;3.10;;;1.27;;
39536;SDS011;26933;46.730;6.526;2022-11-03T17:36:51;2.95;;;1.83;;
39536;SDS011;26933;46.730;6.526;2022-11-03T17:39:52;7.85;;;2.83;;
39536;SDS011;26933;46.730;6.526;2022-11-03T17:42:53;6.35;;;1.83;;
39536;SDS011;26933;46.730;6.526;2022-11-03T17:45:54;2.75;;;1.73;;
39536;SDS011;26933;46.730;6.526;2022-11-03T17:48:56;3.65;;;2.42;;
39536;SDS011;26933;46.730;6.526;2022-11-03T17:51:57;3.90;;;1.65;;
39536;SDS011;26933;46.730;6.526;2022-11-03T17:54:58;1.58;;;1.25;;
39536;SDS011;26933;46.730;6.526;2022-11-03T17:58:00;4.10;;;2.20;;
39536;SDS011;26933;46.730;6.526;2022-11-03T18:01:03;2.38;;;1.63;;
39536;SDS011;26933;46.730;6.526;2022-11-03T18:04:11;5.05;;;2.47;;
39536;SDS011;26933;46.730;6.526;2022-11-03T18:07:23;3.58;;;1.75;;
39536;SDS011;26933;46.730;6.526;2022-11-03T18:10:26;4.45;;;1.58;;
39536;SDS011;26933;46.730;6.526;2022-11-03T18:13:29;1.52;;;1.17;;
39536;SDS011;26933;46.730;6.526;2022-11-03T18:16:32;3.72;;;1.88;;
39536;SDS011;26933;46.730;6.526;2022-11-03T18:19:33;3.17;;;1.73;;
39536;SDS011;26933;46.730;6.526;2022-11-03T18:22:35;2.78;;;1.90;;
39536;SDS011;26933;46.730;6.526;2022-11-03T18:25:36;4.45;;;2.85;;
39536;SDS011;26933;46.730;6.526;2022-11-03T18:28:37;3.05;;;1.45;;
39536;SDS011;26933;46.730;6.526;2022-11-03T18:31:42;3.05;;;1.67;;
39536;SDS011;26933;46.730;6.526;2022-11-03T18:34:46;2.78;;;1.88;;
39536;SDS011;26933;46.730;6.526;2022-11-03T18:37:47;4.25;;;2.05;;
39536;SDS011;26933;46.730;6.526;2022-11-03T18:40:49;2.95;;;1.98;;
39536;SDS011;26933;46.730;6.526;2022-11-03T18:43:50;4.07;;;2.50;;
39536;SDS011;26933;46.730;6.526;2022-11-03T18:46:51;1.90;;;0.82;;
39536;SDS011;26933;46.730;6.526;2022-11-03T18:49:54;2.17;;;1.27;;
39536;SDS011;26933;46.730;6.526;2022-11-03T18:52:55;1.75;;;1.35;;
39536;SDS011;26933;46.730;6.526;2022-11-03T18:55:56;2.17;;;1.02;;
39536;SDS011;26933;46.730;6.526;2022-11-03T18:58:59;2.95;;;1.70;;
39536;SDS011;26933;46.730;6.526;2022-11-03T19:02:00;0.98;;;0.75;;
39536;SDS011;26933;46.730;6.526;2022-11-03T19:05:02;0.13;;;0.13;;
39536;SDS011;26933;46.730;6.526;2022-11-03T19:08:03;0.10;;;0.10;;
39536;SDS011;26933;46.730;6.526;2022-11-03T19:11:04;0.20;;;0.20;;
39536;SDS011;26933;46.730;6.526;2022-11-03T19:14:06;0.20;;;0.20;;
39536;SDS011;26933;46.730;6.526;2022-11-03T19:17:09;0.10;;;0.10;;
39536;SDS011;26933;46.730;6.526;2022-11-03T19:20:12;0.10;;;0.10;;